createdAt,value
2023-02-11T00:00:21.998Z,12.77
2023-02-11T00:02:48.635Z,12.40
2023-02-11T00:05:15.402Z,13.25
2023-02-11T00:07:42.139Z,12.57
2023-02-11T00:10:09.383Z,11.45
2023-02-11T00:12:37.459Z,11.88
2023-02-11T00:15:06.059Z,12.27
2023-02-11T00:17:32.888Z,12.07
2023-02-11T00:19:59.549Z,12.45
2023-02-11T00:22:26.488Z,12.43
2023-02-11T00:24:53.114Z,12.68
2023-02-11T00:27:19.981Z,12.90
2023-02-11T00:29:46.632Z,13.95
2023-02-11T00:32:13.304Z,14.57
2023-02-11T00:34:39.982Z,15.02
2023-02-11T00:37:06.635Z,13.15
2023-02-11T00:39:33.231Z,13.13
2023-02-11T00:41:59.844Z,13.20
2023-02-11T00:44:26.523Z,13.65
2023-02-11T00:46:53.116Z,12.38
2023-02-11T00:49:19.702Z,12.25
2023-02-11T00:51:46.355Z,12.55
2023-02-11T00:54:13.280Z,12.40
2023-02-11T00:56:39.901Z,10.60
2023-02-11T00:59:06.529Z,12.52
2023-02-11T01:01:33.256Z,12.65
2023-02-11T01:04:00.145Z,11.73
2023-02-11T01:06:26.768Z,13.82
2023-02-11T01:08:53.392Z,12.95
2023-02-11T01:11:21.275Z,12.27
2023-02-11T01:13:49.931Z,14.00
2023-02-11T01:16:17.809Z,12.88
2023-02-11T01:18:46.163Z,13.82
2023-02-11T01:21:12.845Z,13.20
2023-02-11T01:23:39.417Z,12.52
2023-02-11T01:26:06.697Z,12.65
2023-02-11T01:28:33.729Z,12.13
2023-02-11T01:31:02.290Z,11.50
2023-02-11T01:33:29.117Z,12.15
2023-02-11T01:35:55.840Z,12.63
2023-02-11T01:38:25.040Z,11.82
2023-02-11T01:40:56.413Z,14.02
2023-02-11T01:43:24.793Z,14.93
2023-02-11T01:46:00.238Z,14.32
2023-02-11T01:48:34.639Z,13.75
2023-02-11T01:51:16.646Z,14.65
2023-02-11T01:54:04.460Z,15.95
2023-02-11T01:56:50.070Z,13.63
2023-02-11T01:59:32.232Z,14.45
2023-02-11T02:02:03.553Z,13.30
2023-02-11T02:04:36.017Z,13.80
2023-02-11T02:07:08.901Z,13.93
2023-02-11T02:09:42.015Z,13.95
2023-02-11T02:12:08.780Z,13.52
2023-02-11T02:14:39.664Z,14.65
2023-02-11T02:17:06.997Z,13.82
2023-02-11T02:19:39.956Z,12.98
2023-02-11T02:22:34.947Z,13.57
2023-02-11T02:25:29.400Z,14.45
2023-02-11T02:28:08.205Z,14.23
2023-02-11T02:30:53.723Z,14.20
2023-02-11T02:33:25.371Z,14.18
2023-02-11T02:35:57.791Z,14.18
2023-02-11T02:38:39.333Z,13.30
2023-02-11T02:41:12.998Z,13.73
2023-02-11T02:43:43.824Z,15.52
2023-02-11T02:46:11.721Z,14.48
2023-02-11T02:48:38.759Z,14.00
2023-02-11T02:51:08.343Z,16.67
2023-02-11T02:53:56.093Z,15.23
2023-02-11T02:56:35.756Z,15.73
2023-02-11T02:59:11.394Z,15.38
2023-02-11T03:01:56.770Z,14.48
2023-02-11T03:05:04.378Z,14.27
2023-02-11T03:07:58.903Z,14.77
2023-02-11T03:10:31.112Z,14.52
2023-02-11T03:12:58.764Z,13.32
2023-02-11T03:15:28.541Z,13.07
2023-02-11T03:17:58.810Z,14.32
2023-02-11T03:20:27.328Z,13.20
2023-02-11T03:23:15.783Z,12.75
2023-02-11T03:25:50.689Z,12.75
2023-02-11T03:28:23.347Z,14.90
2023-02-11T03:30:57.036Z,14.32
2023-02-11T03:33:38.946Z,14.07
2023-02-11T03:36:15.224Z,14.65
2023-02-11T03:38:54.142Z,12.98
2023-02-11T03:41:24.172Z,14.10
2023-02-11T03:43:54.584Z,14.20
2023-02-11T03:46:28.155Z,13.90
2023-02-11T03:48:59.294Z,13.63
2023-02-11T03:51:28.496Z,14.63
2023-02-11T03:53:58.573Z,14.25
2023-02-11T03:56:29.137Z,14.30
2023-02-11T03:58:56.062Z,14.75
2023-02-11T04:01:22.955Z,13.38
2023-02-11T04:03:49.837Z,13.35
2023-02-11T04:06:16.522Z,13.88
2023-02-11T04:08:43.159Z,13.00
2023-02-11T04:11:09.756Z,14.45
2023-02-11T04:13:36.391Z,13.60
2023-02-11T04:16:03.230Z,14.35
2023-02-11T04:18:29.926Z,14.52
2023-02-11T04:20:56.634Z,13.82
2023-02-11T04:23:23.288Z,13.95
2023-02-11T04:25:50.596Z,13.77
2023-02-11T04:28:17.389Z,12.52
2023-02-11T04:30:44.015Z,13.20
2023-02-11T04:33:10.628Z,14.23
2023-02-11T04:35:37.289Z,13.05
2023-02-11T04:38:03.881Z,13.40
2023-02-11T04:40:30.629Z,13.68
2023-02-11T04:42:57.331Z,14.70
2023-02-11T04:45:24.217Z,14.20
2023-02-11T04:47:50.925Z,13.15
2023-02-11T04:50:17.958Z,15.00
2023-02-11T04:52:44.597Z,14.00
2023-02-11T04:55:11.703Z,15.30
2023-02-11T04:57:38.415Z,12.98
2023-02-11T05:00:06.024Z,15.45
2023-02-11T05:02:32.608Z,15.65
2023-02-11T05:04:59.210Z,15.23
2023-02-11T05:07:25.803Z,14.88
2023-02-11T05:09:52.411Z,14.18
2023-02-11T05:12:19.016Z,13.82
2023-02-11T05:14:45.712Z,14.70
2023-02-11T05:17:12.448Z,15.95
2023-02-11T05:19:39.118Z,15.63
2023-02-11T05:22:05.734Z,16.50
2023-02-11T05:24:32.682Z,15.32
2023-02-11T05:26:59.998Z,17.08
2023-02-11T05:29:26.639Z,17.20
2023-02-11T05:31:53.643Z,17.27
2023-02-11T05:34:20.352Z,18.17
2023-02-11T05:36:47.007Z,15.18
2023-02-11T05:39:13.631Z,17.67
2023-02-11T05:41:40.218Z,17.95
2023-02-11T05:44:06.804Z,17.60
2023-02-11T05:46:33.488Z,21.05
2023-02-11T05:49:00.269Z,18.85
2023-02-11T05:51:28.008Z,18.13
2023-02-11T05:53:54.693Z,18.08
2023-02-11T05:56:21.386Z,19.50
2023-02-11T05:58:48.048Z,21.77
2023-02-11T06:01:14.722Z,22.88
2023-02-11T06:03:41.476Z,25.90
2023-02-11T06:06:12.604Z,27.38
2023-02-11T06:08:39.735Z,27.83
2023-02-11T06:11:06.545Z,24.85
2023-02-11T06:13:33.260Z,25.50
2023-02-11T06:16:01.016Z,20.85
2023-02-11T06:18:27.951Z,17.95
2023-02-11T06:20:54.792Z,19.20
2023-02-11T06:23:22.132Z,17.00
2023-02-11T06:25:49.425Z,20.35
2023-02-11T06:28:16.767Z,21.95
2023-02-11T06:30:43.577Z,26.38
2023-02-11T06:33:10.285Z,25.77
2023-02-11T06:35:39.936Z,24.13
2023-02-11T06:38:06.537Z,20.42
2023-02-11T06:40:33.119Z,26.15
2023-02-11T06:42:59.808Z,19.00
2023-02-11T06:45:26.481Z,21.10
2023-02-11T06:47:53.611Z,20.38
2023-02-11T06:50:20.491Z,19.50
2023-02-11T06:52:47.134Z,20.42
2023-02-11T06:55:14.235Z,18.45
2023-02-11T06:57:41.542Z,22.60
2023-02-11T07:00:09.392Z,20.35
2023-02-11T07:02:36.443Z,19.08
2023-02-11T07:05:03.490Z,21.13
2023-02-11T07:07:34.132Z,24.05
2023-02-11T07:10:04.752Z,22.15
2023-02-11T07:12:32.280Z,20.42
2023-02-11T07:14:59.151Z,19.38
2023-02-11T07:17:25.828Z,17.58
2023-02-11T07:20:00.530Z,15.50
2023-02-11T07:22:27.544Z,15.05
2023-02-11T07:24:54.251Z,21.02
2023-02-11T07:27:20.864Z,15.82
2023-02-11T07:29:48.969Z,16.40
2023-02-11T07:32:15.748Z,18.10
2023-02-11T07:34:42.572Z,15.75
2023-02-11T07:39:52.045Z,16.05
2023-02-11T07:42:19.334Z,17.52
2023-02-11T07:44:49.255Z,17.23
2023-02-11T07:47:17.052Z,18.27
2023-02-11T07:49:43.707Z,18.15
2023-02-11T07:52:10.330Z,17.55
2023-02-11T07:54:37.134Z,19.17
2023-02-11T07:57:03.925Z,18.27
2023-02-11T07:59:30.574Z,18.25
2023-02-11T08:01:57.551Z,17.05
2023-02-11T08:04:24.257Z,17.65
2023-02-11T08:06:52.892Z,18.13
2023-02-11T08:09:19.542Z,19.42
2023-02-11T08:11:46.192Z,17.75
2023-02-11T08:14:13.022Z,17.80
2023-02-11T08:16:40.131Z,22.02
2023-02-11T08:19:11.749Z,21.23
2023-02-11T08:21:39.557Z,16.70
2023-02-11T08:24:13.144Z,18.25
2023-02-11T08:26:42.839Z,18.05
2023-02-11T08:29:12.228Z,20.40
2023-02-11T08:31:41.521Z,20.80
2023-02-11T08:34:10.026Z,18.65
2023-02-11T08:36:38.217Z,17.27
2023-02-11T08:39:18.626Z,17.13
2023-02-11T08:41:49.073Z,16.05
2023-02-11T08:44:16.626Z,15.00
2023-02-11T08:46:43.331Z,15.00
2023-02-11T08:49:10.203Z,13.95
2023-02-11T08:51:37.253Z,15.73
2023-02-11T08:54:04.580Z,14.70
2023-02-11T08:56:33.255Z,14.00
2023-02-11T08:58:59.919Z,14.27
2023-02-11T09:01:29.721Z,14.32
2023-02-11T09:03:58.445Z,14.00
2023-02-11T09:06:26.884Z,14.05
2023-02-11T09:08:57.805Z,15.73
2023-02-11T09:11:30.754Z,14.95
2023-02-11T09:13:57.659Z,13.50
2023-02-11T09:16:27.305Z,13.80
2023-02-11T09:18:57.413Z,13.05
2023-02-11T09:21:24.130Z,13.98
2023-02-11T09:23:51.084Z,14.85
2023-02-11T09:26:23.692Z,13.35
2023-02-11T09:28:51.542Z,14.63
2023-02-11T09:31:21.417Z,13.80
2023-02-11T09:33:50.461Z,12.48
2023-02-11T09:36:20.475Z,13.35
2023-02-11T09:38:48.319Z,13.07
2023-02-11T09:41:24.059Z,13.35
2023-02-11T09:43:59.352Z,13.25
2023-02-11T09:46:43.230Z,11.27
2023-02-11T09:49:21.953Z,12.02
2023-02-11T09:51:53.621Z,12.48
2023-02-11T09:54:34.272Z,12.63
2023-02-11T09:57:01.100Z,12.23
2023-02-11T09:59:28.180Z,12.35
2023-02-11T10:02:35.568Z,11.02
2023-02-11T10:05:23.925Z,10.90
2023-02-11T10:08:16.860Z,11.18
2023-02-11T10:11:07.462Z,11.77
2023-02-11T10:13:48.331Z,12.57
2023-02-11T10:16:55.524Z,12.10
2023-02-11T10:19:42.835Z,11.35
2023-02-11T10:22:17.508Z,10.60
2023-02-11T10:24:53.655Z,10.88
2023-02-11T10:27:29.179Z,10.65
2023-02-11T10:30:07.301Z,8.90
2023-02-11T10:32:49.770Z,10.88
2023-02-11T10:35:22.000Z,13.63
2023-02-11T10:40:28.082Z,8.55
2023-02-11T10:43:01.434Z,10.15
2023-02-11T10:45:35.226Z,9.52
2023-02-11T10:48:06.356Z,11.18
2023-02-11T10:50:35.151Z,10.20
2023-02-11T10:53:20.971Z,11.00
2023-02-11T10:55:54.142Z,9.45
2023-02-11T10:58:30.847Z,10.00
2023-02-11T11:01:00.057Z,8.50
2023-02-11T11:03:32.099Z,8.45
2023-02-11T11:06:02.052Z,10.65
2023-02-11T11:08:40.810Z,10.48
2023-02-11T11:11:13.487Z,8.95
2023-02-11T11:14:03.302Z,7.85
2023-02-11T11:16:35.153Z,7.50
2023-02-11T11:19:08.536Z,7.60
2023-02-11T11:21:41.957Z,10.13
2023-02-11T11:24:18.920Z,9.85
2023-02-11T11:26:48.755Z,9.70
2023-02-11T11:29:18.412Z,9.85
2023-02-11T11:32:04.632Z,9.10
2023-02-11T11:34:43.198Z,9.25
2023-02-11T11:37:31.413Z,8.50
2023-02-11T11:40:18.204Z,7.72
2023-02-11T11:42:45.271Z,8.20
2023-02-11T11:45:27.089Z,7.40
2023-02-11T11:48:12.516Z,8.23
2023-02-11T11:51:00.322Z,6.75
2023-02-11T11:53:55.623Z,7.75
2023-02-11T12:13:29.021Z,7.63
2023-02-11T12:16:07.872Z,6.55
2023-02-11T12:19:14.405Z,8.10
2023-02-11T12:22:20.921Z,7.57
2023-02-11T12:24:56.908Z,6.05
2023-02-11T12:27:45.616Z,7.07
2023-02-11T12:30:51.365Z,6.85
2023-02-11T12:33:38.588Z,7.75
2023-02-11T12:36:27.625Z,8.07
2023-02-11T12:44:58.246Z,9.45
2023-02-11T12:47:43.741Z,8.80
2023-02-11T12:50:34.920Z,5.47
2023-02-11T12:53:23.095Z,7.10
2023-02-11T12:55:56.152Z,7.38
2023-02-11T12:58:42.895Z,6.35
2023-02-11T13:01:26.095Z,7.05
2023-02-11T13:04:14.244Z,6.90
2023-02-11T13:06:50.180Z,6.53
2023-02-11T13:09:33.094Z,7.57
2023-02-11T13:12:26.492Z,6.45
2023-02-11T13:14:59.344Z,6.45
2023-02-11T13:23:06.853Z,6.30
2023-02-11T13:26:05.947Z,7.15
2023-02-11T13:28:42.466Z,6.45
2023-02-11T13:31:27.880Z,6.55
2023-02-11T13:33:59.083Z,6.80
2023-02-11T13:39:09.340Z,8.10
2023-02-11T13:41:40.572Z,6.82
2023-02-11T13:44:10.211Z,7.78
2023-02-11T13:46:57.298Z,6.55
2023-02-11T13:49:51.757Z,6.32
2023-02-11T13:52:34.508Z,5.93
2023-02-11T13:55:25.183Z,5.38
2023-02-11T13:58:07.106Z,6.43
2023-02-11T14:00:33.677Z,6.15
2023-02-11T14:03:31.030Z,7.18
2023-02-11T14:06:30.576Z,6.88
2023-02-11T14:09:09.453Z,6.65
2023-02-11T14:11:47.138Z,6.72
2023-02-11T14:15:02.865Z,7.45
2023-02-11T14:17:33.530Z,6.82
2023-02-11T14:20:04.632Z,6.57
2023-02-11T14:22:44.245Z,7.03
2023-02-11T14:25:22.988Z,5.18
2023-02-11T14:28:08.105Z,7.43
2023-02-11T14:30:52.188Z,6.35
2023-02-11T14:33:47.890Z,6.45
2023-02-11T14:36:29.796Z,6.82
2023-02-11T14:39:11.597Z,8.75
2023-02-11T14:41:47.290Z,6.50
2023-02-11T14:44:30.117Z,7.55
2023-02-11T14:46:58.088Z,5.38
2023-02-11T14:49:39.539Z,6.75
2023-02-11T14:52:14.695Z,7.63
2023-02-11T14:54:44.653Z,7.78
2023-02-11T14:57:18.359Z,7.60
2023-02-11T15:00:03.575Z,7.35
2023-02-11T15:02:35.374Z,10.13
2023-02-11T15:05:29.021Z,7.20
2023-02-11T15:08:00.032Z,7.45
2023-02-11T15:10:41.921Z,7.80
2023-02-11T15:13:13.974Z,7.30
2023-02-11T15:15:40.966Z,7.68
2023-02-11T15:18:09.713Z,7.43
2023-02-11T15:20:37.065Z,7.78
2023-02-11T15:23:08.593Z,7.55
2023-02-11T15:25:43.034Z,7.72
2023-02-11T15:28:30.893Z,7.80
2023-02-11T15:31:00.469Z,7.82
2023-02-11T15:33:30.257Z,7.85
2023-02-11T15:35:57.747Z,9.02
2023-02-11T15:38:24.660Z,8.82
2023-02-11T15:40:58.328Z,8.00
2023-02-11T15:43:25.425Z,9.65
2023-02-11T15:45:51.921Z,9.43
2023-02-11T15:48:47.228Z,9.48
2023-02-11T15:51:30.113Z,10.60
2023-02-11T15:53:59.689Z,11.93
2023-02-11T15:56:30.700Z,9.40
2023-02-11T15:59:00.738Z,9.88
2023-02-11T16:01:36.570Z,9.73
2023-02-11T16:04:04.976Z,8.45
2023-02-11T16:06:42.795Z,9.45
2023-02-11T16:09:10.228Z,11.55
2023-02-11T16:11:45.961Z,10.30
2023-02-11T16:14:42.212Z,9.63
2023-02-11T16:17:13.264Z,9.30
2023-02-11T16:19:47.935Z,9.68
2023-02-11T16:22:19.282Z,9.27
2023-02-11T16:24:48.615Z,10.13
2023-02-11T16:27:31.271Z,10.02
2023-02-11T16:29:58.806Z,8.95
2023-02-11T16:32:29.834Z,8.60
2023-02-11T16:34:59.440Z,11.07
2023-02-11T16:37:26.372Z,9.35
2023-02-11T16:39:58.108Z,9.63
2023-02-11T16:42:25.254Z,8.15
2023-02-11T16:44:52.040Z,9.70
2023-02-11T16:47:28.699Z,9.43
2023-02-11T16:49:56.209Z,13.38
2023-02-11T16:52:24.407Z,9.23
2023-02-11T16:54:51.268Z,10.05
2023-02-11T16:57:23.230Z,8.80
2023-02-11T16:59:49.847Z,8.43
2023-02-11T17:02:28.525Z,9.07
2023-02-11T17:04:58.172Z,10.23
2023-02-11T17:07:24.820Z,11.57
2023-02-11T17:09:52.301Z,13.10
2023-02-11T17:12:19.737Z,11.38
2023-02-11T17:14:46.400Z,9.82
2023-02-11T17:17:13.494Z,10.82
2023-02-11T17:19:40.153Z,10.32
2023-02-11T17:22:06.933Z,10.85
2023-02-11T17:24:33.532Z,12.07
2023-02-11T17:27:00.241Z,11.18
2023-02-11T17:29:27.196Z,11.30
2023-02-11T17:31:54.047Z,11.95
2023-02-11T17:34:22.337Z,10.00
2023-02-11T17:36:49.214Z,11.20
2023-02-11T17:39:15.931Z,9.43
2023-02-11T17:41:42.772Z,9.48
2023-02-11T17:44:12.531Z,10.80
2023-02-11T17:46:39.172Z,11.88
2023-02-11T17:49:05.866Z,15.27
2023-02-11T17:51:37.765Z,14.82
2023-02-11T17:54:11.918Z,17.63
2023-02-11T17:56:39.210Z,27.48
2023-02-11T17:59:06.861Z,35.08
2023-02-11T18:01:34.559Z,30.48
2023-02-11T18:04:01.699Z,24.60
2023-02-11T18:06:31.562Z,21.98
2023-02-11T18:08:59.890Z,35.70
2023-02-11T18:11:27.946Z,15.23
2023-02-11T18:13:54.765Z,13.63
2023-02-11T18:16:23.128Z,11.48
2023-02-11T18:18:50.581Z,12.82
2023-02-11T18:21:20.413Z,13.23
2023-02-11T18:23:47.773Z,14.77
2023-02-11T18:26:16.978Z,11.43
2023-02-11T18:28:45.989Z,10.95
2023-02-11T18:31:14.071Z,12.10
2023-02-11T18:33:42.235Z,14.73
2023-02-11T18:36:11.553Z,11.88
2023-02-11T18:38:38.668Z,10.55
2023-02-11T18:41:05.721Z,10.45
2023-02-11T18:43:33.777Z,10.65
2023-02-11T18:46:02.159Z,10.88
2023-02-11T18:48:29.066Z,10.98
2023-02-11T18:50:56.142Z,9.68
2023-02-11T18:53:24.682Z,8.98
2023-02-11T18:55:52.662Z,9.55
2023-02-11T18:58:21.204Z,9.98
2023-02-11T19:00:49.034Z,9.10
2023-02-11T19:03:16.077Z,9.35
2023-02-11T19:05:48.136Z,9.50
2023-02-11T19:08:15.335Z,9.85
2023-02-11T19:10:44.515Z,9.60
2023-02-11T19:13:11.716Z,8.35
2023-02-11T19:15:43.382Z,9.70
2023-02-11T19:18:10.748Z,10.60
2023-02-11T19:20:42.034Z,13.30
2023-02-11T19:23:09.274Z,15.03
2023-02-11T19:25:36.245Z,12.50
2023-02-11T19:28:03.939Z,14.75
2023-02-11T19:30:30.773Z,11.23
2023-02-11T19:32:57.793Z,14.48
2023-02-11T19:35:25.382Z,13.80
2023-02-11T19:37:52.055Z,13.13
2023-02-11T19:40:21.270Z,12.43
2023-02-11T19:42:48.053Z,13.60
2023-02-11T19:45:14.791Z,12.68
2023-02-11T19:47:41.518Z,12.85
2023-02-11T19:50:08.673Z,10.52
2023-02-11T19:52:38.312Z,8.90
2023-02-11T19:55:05.209Z,8.68
2023-02-11T19:57:31.906Z,7.10
2023-02-11T19:59:58.570Z,5.68
2023-02-11T20:02:25.264Z,19.02
2023-02-11T20:04:51.897Z,7.00
2023-02-11T20:07:18.558Z,7.47
2023-02-11T20:09:45.183Z,7.60
2023-02-11T20:12:12.137Z,7.30
2023-02-11T20:14:38.911Z,6.60
2023-02-11T20:17:05.584Z,8.35
2023-02-11T20:19:32.375Z,7.47
2023-02-11T20:21:58.940Z,6.88
2023-02-11T20:24:26.178Z,7.28
2023-02-11T20:26:55.936Z,7.38
2023-02-11T20:29:24.057Z,6.78
2023-02-11T20:31:50.948Z,6.63
2023-02-11T20:34:18.178Z,8.10
2023-02-11T20:36:52.057Z,7.97
2023-02-11T20:39:21.761Z,6.32
2023-02-11T20:41:49.208Z,7.18
2023-02-11T20:44:16.258Z,7.70
2023-02-11T20:46:48.087Z,7.65
2023-02-11T20:49:18.950Z,7.88
2023-02-11T20:51:46.455Z,7.60
2023-02-11T20:54:15.500Z,8.07
2023-02-11T20:56:42.762Z,7.90
2023-02-11T20:59:09.783Z,7.97
2023-02-11T21:01:43.002Z,6.95
2023-02-11T21:04:15.618Z,8.52
2023-02-11T21:06:44.725Z,8.27
2023-02-11T21:09:15.016Z,9.35
2023-02-11T21:11:42.366Z,9.60
2023-02-11T21:14:10.364Z,8.23
2023-02-11T21:16:37.250Z,8.32
2023-02-11T21:19:04.516Z,8.88
2023-02-11T21:21:31.768Z,8.95
2023-02-11T21:23:58.699Z,9.13
2023-02-11T21:26:25.767Z,10.30
2023-02-11T21:28:52.336Z,14.45
2023-02-11T21:31:23.062Z,9.95
2023-02-11T21:33:50.988Z,8.90
2023-02-11T21:36:17.989Z,7.15
2023-02-11T21:38:44.926Z,8.82
2023-02-11T21:41:11.674Z,7.95
2023-02-11T21:43:38.499Z,8.52
2023-02-11T21:46:10.771Z,5.78
2023-02-11T21:48:37.901Z,8.18
2023-02-11T21:51:25.937Z,7.93
2023-02-11T21:53:56.381Z,6.78
2023-02-11T21:56:23.856Z,6.68
2023-02-11T21:58:53.434Z,7.32
2023-02-11T22:01:28.979Z,6.88
2023-02-11T22:03:55.936Z,6.75
2023-02-11T22:06:30.931Z,5.75
2023-02-11T22:08:58.064Z,6.43
2023-02-11T22:11:25.027Z,6.82
2023-02-11T22:13:56.370Z,8.82
2023-02-11T22:16:23.941Z,8.57
2023-02-11T22:18:51.504Z,13.80
2023-02-11T22:21:20.843Z,8.63
2023-02-11T22:23:47.983Z,7.45
2023-02-11T22:26:21.486Z,6.70
2023-02-11T22:28:48.913Z,7.38
2023-02-11T22:31:22.276Z,6.68
2023-02-11T22:33:49.071Z,5.80
2023-02-11T22:36:19.073Z,7.25
2023-02-11T22:38:45.794Z,7.63
2023-02-11T22:41:12.957Z,8.02
2023-02-11T22:43:41.848Z,7.35
2023-02-11T22:46:09.427Z,8.80
2023-02-11T22:48:36.117Z,7.47
2023-02-11T22:51:11.239Z,6.93
2023-02-11T22:53:37.897Z,6.10
2023-02-11T22:56:15.333Z,6.88
2023-02-11T22:58:42.543Z,6.85
2023-02-11T23:01:09.216Z,7.18
2023-02-11T23:03:36.530Z,7.30
2023-02-11T23:06:03.540Z,8.45
2023-02-11T23:08:31.642Z,8.00
2023-02-11T23:11:24.399Z,7.88
2023-02-11T23:13:52.318Z,7.68
2023-02-11T23:16:23.648Z,10.98
2023-02-11T23:18:51.144Z,9.43
2023-02-11T23:21:23.613Z,9.30
2023-02-11T23:23:55.161Z,9.13
2023-02-11T23:26:21.841Z,9.40
2023-02-11T23:28:48.490Z,9.85
2023-02-11T23:31:21.852Z,9.07
2023-02-11T23:33:49.424Z,9.23
2023-02-11T23:36:18.376Z,9.20
2023-02-11T23:38:45.562Z,8.90
2023-02-11T23:41:12.482Z,8.32
2023-02-11T23:43:39.367Z,9.10
2023-02-11T23:46:06.674Z,8.77
2023-02-11T23:48:33.892Z,8.57
2023-02-11T23:51:00.404Z,7.35
2023-02-11T23:53:27.142Z,7.88
2023-02-11T23:55:54.039Z,6.65
2023-02-11T23:58:20.973Z,8.20
